sensor_id;sensor_type;location;lat;lon;timestamp;P1;durP1;ratioP1;P2;durP2;ratioP2
68126;SDS011;54931;52.098;21.006;2023-07-20T00:02:14;6.10;;;3.00;;
68126;SDS011;54931;52.098;21.006;2023-07-20T00:04:42;9.50;;;3.60;;
68126;SDS011;54931;52.098;21.006;2023-07-20T00:07:09;6.50;;;3.40;;
68126;SDS011;54931;52.098;21.006;2023-07-20T00:09:37;8.30;;;3.40;;
68126;SDS011;54931;52.098;21.006;2023-07-20T00:12:05;7.00;;;3.40;;
68126;SDS011;54931;52.098;21.006;2023-07-20T00:14:32;4.90;;;3.40;;
68126;SDS011;54931;52.098;21.006;2023-07-20T00:17:00;6.70;;;3.10;;
68126;SDS011;54931;52.098;21.006;2023-07-20T00:19:28;6.10;;;3.30;;
68126;SDS011;54931;52.098;21.006;2023-07-20T00:21:56;4.90;;;3.30;;
68126;SDS011;54931;52.098;21.006;2023-07-20T00:24:23;5.30;;;3.20;;
68126;SDS011;54931;52.098;21.006;2023-07-20T00:26:50;4.50;;;3.30;;
68126;SDS011;54931;52.098;21.006;2023-07-20T00:29:18;5.10;;;3.30;;
68126;SDS011;54931;52.098;21.006;2023-07-20T00:31:45;6.60;;;3.20;;
68126;SDS011;54931;52.098;21.006;2023-07-20T00:34:13;4.40;;;3.20;;
68126;SDS011;54931;52.098;21.006;2023-07-20T00:36:41;6.40;;;3.40;;
68126;SDS011;54931;52.098;21.006;2023-07-20T00:39:08;5.40;;;3.30;;
68126;SDS011;54931;52.098;21.006;2023-07-20T00:41:35;4.60;;;3.00;;
68126;SDS011;54931;52.098;21.006;2023-07-20T00:44:04;5.80;;;3.50;;
68126;SDS011;54931;52.098;21.006;2023-07-20T00:46:32;7.30;;;3.80;;
68126;SDS011;54931;52.098;21.006;2023-07-20T00:49:00;8.00;;;3.70;;
68126;SDS011;54931;52.098;21.006;2023-07-20T00:51:28;8.50;;;3.50;;
68126;SDS011;54931;52.098;21.006;2023-07-20T00:53:55;5.10;;;3.50;;
68126;SDS011;54931;52.098;21.006;2023-07-20T00:56:23;4.90;;;3.20;;
68126;SDS011;54931;52.098;21.006;2023-07-20T00:58:51;4.40;;;2.90;;
68126;SDS011;54931;52.098;21.006;2023-07-20T01:01:19;5.50;;;3.00;;
68126;SDS011;54931;52.098;21.006;2023-07-20T01:03:47;5.00;;;2.90;;
68126;SDS011;54931;52.098;21.006;2023-07-20T01:06:31;6.10;;;3.20;;
68126;SDS011;54931;52.098;21.006;2023-07-20T01:09:35;7.10;;;3.20;;
68126;SDS011;54931;52.098;21.006;2023-07-20T01:14:59;6.50;;;3.10;;
68126;SDS011;54931;52.098;21.006;2023-07-20T01:17:27;6.40;;;3.40;;
68126;SDS011;54931;52.098;21.006;2023-07-20T01:19:54;5.50;;;3.10;;
68126;SDS011;54931;52.098;21.006;2023-07-20T01:31:29;5.50;;;3.30;;
68126;SDS011;54931;52.098;21.006;2023-07-20T01:34:01;3.80;;;2.80;;
68126;SDS011;54931;52.098;21.006;2023-07-20T01:36:35;6.60;;;3.40;;
68126;SDS011;54931;52.098;21.006;2023-07-20T01:39:06;5.50;;;3.20;;
68126;SDS011;54931;52.098;21.006;2023-07-20T01:41:34;6.00;;;3.60;;
68126;SDS011;54931;52.098;21.006;2023-07-20T01:44:03;7.90;;;3.40;;
68126;SDS011;54931;52.098;21.006;2023-07-20T01:46:31;7.70;;;3.50;;
68126;SDS011;54931;52.098;21.006;2023-07-20T01:48:59;4.00;;;3.00;;
68126;SDS011;54931;52.098;21.006;2023-07-20T01:51:26;6.70;;;3.60;;
68126;SDS011;54931;52.098;21.006;2023-07-20T01:53:53;10.80;;;3.60;;
68126;SDS011;54931;52.098;21.006;2023-07-20T01:56:21;6.70;;;3.40;;
68126;SDS011;54931;52.098;21.006;2023-07-20T01:58:49;4.30;;;3.00;;
68126;SDS011;54931;52.098;21.006;2023-07-20T02:01:16;4.80;;;3.20;;
68126;SDS011;54931;52.098;21.006;2023-07-20T02:03:43;6.40;;;3.40;;
68126;SDS011;54931;52.098;21.006;2023-07-20T02:06:11;5.80;;;3.40;;
68126;SDS011;54931;52.098;21.006;2023-07-20T02:08:39;5.50;;;3.10;;
68126;SDS011;54931;52.098;21.006;2023-07-20T02:11:06;5.30;;;3.50;;
68126;SDS011;54931;52.098;21.006;2023-07-20T02:13:33;5.20;;;3.40;;
68126;SDS011;54931;52.098;21.006;2023-07-20T02:16:00;6.40;;;3.40;;
68126;SDS011;54931;52.098;21.006;2023-07-20T02:18:28;6.80;;;3.40;;
68126;SDS011;54931;52.098;21.006;2023-07-20T02:20:55;5.60;;;3.30;;
68126;SDS011;54931;52.098;21.006;2023-07-20T02:23:23;5.80;;;3.40;;
68126;SDS011;54931;52.098;21.006;2023-07-20T02:25:50;5.80;;;3.40;;
68126;SDS011;54931;52.098;21.006;2023-07-20T02:28:17;5.90;;;3.80;;
68126;SDS011;54931;52.098;21.006;2023-07-20T02:30:45;6.50;;;4.10;;
68126;SDS011;54931;52.098;21.006;2023-07-20T02:33:13;8.30;;;3.30;;
68126;SDS011;54931;52.098;21.006;2023-07-20T02:35:41;5.10;;;3.20;;
68126;SDS011;54931;52.098;21.006;2023-07-20T02:38:08;5.30;;;3.70;;
68126;SDS011;54931;52.098;21.006;2023-07-20T02:40:35;6.00;;;3.80;;
68126;SDS011;54931;52.098;21.006;2023-07-20T02:43:03;7.90;;;3.60;;
68126;SDS011;54931;52.098;21.006;2023-07-20T02:45:30;8.20;;;3.70;;
68126;SDS011;54931;52.098;21.006;2023-07-20T02:47:58;5.80;;;3.70;;
68126;SDS011;54931;52.098;21.006;2023-07-20T02:50:25;5.90;;;3.80;;
68126;SDS011;54931;52.098;21.006;2023-07-20T02:52:52;5.10;;;3.60;;
68126;SDS011;54931;52.098;21.006;2023-07-20T02:55:20;6.60;;;3.50;;
68126;SDS011;54931;52.098;21.006;2023-07-20T02:57:47;5.10;;;3.30;;
68126;SDS011;54931;52.098;21.006;2023-07-20T03:00:15;7.10;;;3.60;;
68126;SDS011;54931;52.098;21.006;2023-07-20T03:02:43;5.50;;;3.40;;
68126;SDS011;54931;52.098;21.006;2023-07-20T03:05:10;5.30;;;3.20;;
68126;SDS011;54931;52.098;21.006;2023-07-20T03:07:38;7.70;;;3.60;;
68126;SDS011;54931;52.098;21.006;2023-07-20T03:10:06;6.40;;;3.80;;
68126;SDS011;54931;52.098;21.006;2023-07-20T03:12:36;5.70;;;3.80;;
68126;SDS011;54931;52.098;21.006;2023-07-20T03:15:04;9.00;;;4.00;;
68126;SDS011;54931;52.098;21.006;2023-07-20T03:17:32;5.20;;;3.60;;
68126;SDS011;54931;52.098;21.006;2023-07-20T03:20:00;6.20;;;4.00;;
68126;SDS011;54931;52.098;21.006;2023-07-20T03:22:28;6.50;;;4.20;;
68126;SDS011;54931;52.098;21.006;2023-07-20T03:24:56;7.20;;;4.10;;
68126;SDS011;54931;52.098;21.006;2023-07-20T03:27:23;5.90;;;3.70;;
68126;SDS011;54931;52.098;21.006;2023-07-20T03:29:50;8.10;;;4.10;;
68126;SDS011;54931;52.098;21.006;2023-07-20T03:32:18;5.80;;;3.90;;
68126;SDS011;54931;52.098;21.006;2023-07-20T03:34:45;7.00;;;3.80;;
68126;SDS011;54931;52.098;21.006;2023-07-20T03:37:13;8.10;;;3.90;;
68126;SDS011;54931;52.098;21.006;2023-07-20T03:39:41;7.10;;;3.90;;
68126;SDS011;54931;52.098;21.006;2023-07-20T03:42:08;8.80;;;4.20;;
68126;SDS011;54931;52.098;21.006;2023-07-20T03:44:35;8.70;;;4.10;;
68126;SDS011;54931;52.098;21.006;2023-07-20T03:47:03;12.30;;;4.60;;
68126;SDS011;54931;52.098;21.006;2023-07-20T03:49:31;11.00;;;4.40;;
68126;SDS011;54931;52.098;21.006;2023-07-20T03:52:01;8.60;;;4.70;;
68126;SDS011;54931;52.098;21.006;2023-07-20T03:54:30;8.70;;;5.40;;
68126;SDS011;54931;52.098;21.006;2023-07-20T03:56:57;9.40;;;5.30;;
68126;SDS011;54931;52.098;21.006;2023-07-20T03:59:25;11.80;;;5.10;;
68126;SDS011;54931;52.098;21.006;2023-07-20T04:01:52;11.10;;;5.20;;
68126;SDS011;54931;52.098;21.006;2023-07-20T04:04:19;11.20;;;5.10;;
68126;SDS011;54931;52.098;21.006;2023-07-20T04:06:47;9.30;;;5.40;;
68126;SDS011;54931;52.098;21.006;2023-07-20T04:09:14;9.60;;;5.20;;
68126;SDS011;54931;52.098;21.006;2023-07-20T04:11:42;15.40;;;5.40;;
68126;SDS011;54931;52.098;21.006;2023-07-20T04:14:09;10.10;;;5.50;;
68126;SDS011;54931;52.098;21.006;2023-07-20T04:16:37;7.50;;;5.10;;
68126;SDS011;54931;52.098;21.006;2023-07-20T04:19:05;11.10;;;5.70;;
68126;SDS011;54931;52.098;21.006;2023-07-20T04:21:32;14.30;;;6.00;;
68126;SDS011;54931;52.098;21.006;2023-07-20T04:24:00;8.40;;;5.60;;
68126;SDS011;54931;52.098;21.006;2023-07-20T04:26:27;8.40;;;5.80;;
68126;SDS011;54931;52.098;21.006;2023-07-20T04:28:55;9.40;;;5.40;;
68126;SDS011;54931;52.098;21.006;2023-07-20T04:31:23;10.40;;;6.00;;
68126;SDS011;54931;52.098;21.006;2023-07-20T04:33:50;7.60;;;5.80;;
68126;SDS011;54931;52.098;21.006;2023-07-20T04:36:18;10.30;;;5.90;;
68126;SDS011;54931;52.098;21.006;2023-07-20T04:38:46;14.00;;;6.50;;
68126;SDS011;54931;52.098;21.006;2023-07-20T04:41:14;8.80;;;6.10;;
68126;SDS011;54931;52.098;21.006;2023-07-20T04:43:42;10.90;;;6.00;;
68126;SDS011;54931;52.098;21.006;2023-07-20T04:46:11;12.10;;;6.60;;
68126;SDS011;54931;52.098;21.006;2023-07-20T04:48:38;10.50;;;6.30;;
68126;SDS011;54931;52.098;21.006;2023-07-20T04:51:07;14.10;;;7.20;;
68126;SDS011;54931;52.098;21.006;2023-07-20T04:53:34;10.50;;;6.30;;
68126;SDS011;54931;52.098;21.006;2023-07-20T04:56:02;13.40;;;7.20;;
68126;SDS011;54931;52.098;21.006;2023-07-20T04:58:29;9.90;;;6.80;;
68126;SDS011;54931;52.098;21.006;2023-07-20T05:00:57;13.40;;;6.90;;
68126;SDS011;54931;52.098;21.006;2023-07-20T05:03:24;11.20;;;7.40;;
68126;SDS011;54931;52.098;21.006;2023-07-20T05:05:51;11.00;;;6.80;;
68126;SDS011;54931;52.098;21.006;2023-07-20T05:08:19;11.30;;;7.30;;
68126;SDS011;54931;52.098;21.006;2023-07-20T05:10:46;11.70;;;7.60;;
68126;SDS011;54931;52.098;21.006;2023-07-20T05:13:14;10.50;;;7.40;;
68126;SDS011;54931;52.098;21.006;2023-07-20T05:15:41;11.00;;;7.80;;
68126;SDS011;54931;52.098;21.006;2023-07-20T05:18:09;11.40;;;6.90;;
68126;SDS011;54931;52.098;21.006;2023-07-20T05:20:36;15.30;;;7.60;;
68126;SDS011;54931;52.098;21.006;2023-07-20T05:23:04;11.20;;;6.90;;
68126;SDS011;54931;52.098;21.006;2023-07-20T05:25:31;10.20;;;7.40;;
68126;SDS011;54931;52.098;21.006;2023-07-20T05:27:59;10.20;;;7.40;;
68126;SDS011;54931;52.098;21.006;2023-07-20T05:30:26;13.30;;;7.30;;
68126;SDS011;54931;52.098;21.006;2023-07-20T05:32:56;10.80;;;7.20;;
68126;SDS011;54931;52.098;21.006;2023-07-20T05:35:23;12.20;;;7.40;;
68126;SDS011;54931;52.098;21.006;2023-07-20T05:37:51;8.70;;;6.80;;
68126;SDS011;54931;52.098;21.006;2023-07-20T05:40:18;12.40;;;7.50;;
68126;SDS011;54931;52.098;21.006;2023-07-20T05:42:47;13.70;;;7.30;;
68126;SDS011;54931;52.098;21.006;2023-07-20T05:45:16;11.80;;;6.90;;
68126;SDS011;54931;52.098;21.006;2023-07-20T05:47:44;9.80;;;6.90;;
68126;SDS011;54931;52.098;21.006;2023-07-20T05:50:11;11.80;;;7.10;;
68126;SDS011;54931;52.098;21.006;2023-07-20T05:52:39;9.60;;;7.00;;
68126;SDS011;54931;52.098;21.006;2023-07-20T05:55:07;9.90;;;6.60;;
68126;SDS011;54931;52.098;21.006;2023-07-20T05:57:35;9.50;;;6.30;;
68126;SDS011;54931;52.098;21.006;2023-07-20T06:00:03;10.30;;;6.50;;
68126;SDS011;54931;52.098;21.006;2023-07-20T06:02:34;11.00;;;6.40;;
68126;SDS011;54931;52.098;21.006;2023-07-20T06:05:01;8.90;;;6.10;;
68126;SDS011;54931;52.098;21.006;2023-07-20T06:07:28;11.50;;;6.00;;
68126;SDS011;54931;52.098;21.006;2023-07-20T06:09:56;10.50;;;6.40;;
68126;SDS011;54931;52.098;21.006;2023-07-20T06:12:25;10.00;;;6.60;;
68126;SDS011;54931;52.098;21.006;2023-07-20T06:14:52;8.60;;;6.10;;
68126;SDS011;54931;52.098;21.006;2023-07-20T06:17:20;9.60;;;6.00;;
68126;SDS011;54931;52.098;21.006;2023-07-20T06:19:47;10.00;;;5.50;;
68126;SDS011;54931;52.098;21.006;2023-07-20T06:22:15;10.70;;;6.20;;
68126;SDS011;54931;52.098;21.006;2023-07-20T06:24:42;9.10;;;6.10;;
68126;SDS011;54931;52.098;21.006;2023-07-20T06:27:10;8.60;;;6.10;;
68126;SDS011;54931;52.098;21.006;2023-07-20T06:29:37;8.30;;;5.80;;
68126;SDS011;54931;52.098;21.006;2023-07-20T06:32:06;9.60;;;6.10;;
68126;SDS011;54931;52.098;21.006;2023-07-20T06:34:34;10.70;;;6.30;;
68126;SDS011;54931;52.098;21.006;2023-07-20T06:37:05;8.90;;;5.80;;
68126;SDS011;54931;52.098;21.006;2023-07-20T06:39:32;13.30;;;6.40;;
68126;SDS011;54931;52.098;21.006;2023-07-20T06:41:59;10.60;;;6.10;;
68126;SDS011;54931;52.098;21.006;2023-07-20T06:44:27;8.70;;;6.20;;
68126;SDS011;54931;52.098;21.006;2023-07-20T06:46:55;9.40;;;6.50;;
68126;SDS011;54931;52.098;21.006;2023-07-20T06:49:26;8.80;;;6.50;;
68126;SDS011;54931;52.098;21.006;2023-07-20T06:51:54;11.50;;;6.60;;
68126;SDS011;54931;52.098;21.006;2023-07-20T06:54:22;10.10;;;6.20;;
68126;SDS011;54931;52.098;21.006;2023-07-20T06:56:50;9.50;;;6.30;;
68126;SDS011;54931;52.098;21.006;2023-07-20T06:59:18;9.30;;;6.40;;
68126;SDS011;54931;52.098;21.006;2023-07-20T07:01:45;9.40;;;6.50;;
68126;SDS011;54931;52.098;21.006;2023-07-20T07:04:12;10.70;;;6.70;;
68126;SDS011;54931;52.098;21.006;2023-07-20T07:06:39;9.20;;;6.50;;
68126;SDS011;54931;52.098;21.006;2023-07-20T07:09:08;10.00;;;7.20;;
68126;SDS011;54931;52.098;21.006;2023-07-20T07:11:35;10.80;;;7.00;;
68126;SDS011;54931;52.098;21.006;2023-07-20T07:14:03;15.50;;;7.80;;
68126;SDS011;54931;52.098;21.006;2023-07-20T07:16:30;12.50;;;7.50;;
68126;SDS011;54931;52.098;21.006;2023-07-20T07:18:58;13.40;;;6.90;;
68126;SDS011;54931;52.098;21.006;2023-07-20T07:21:26;11.40;;;7.10;;
68126;SDS011;54931;52.098;21.006;2023-07-20T07:23:53;12.20;;;7.60;;
68126;SDS011;54931;52.098;21.006;2023-07-20T07:26:24;12.00;;;7.40;;
68126;SDS011;54931;52.098;21.006;2023-07-20T07:28:51;10.00;;;7.20;;
68126;SDS011;54931;52.098;21.006;2023-07-20T07:31:19;11.30;;;7.40;;
68126;SDS011;54931;52.098;21.006;2023-07-20T07:33:46;12.80;;;7.70;;
68126;SDS011;54931;52.098;21.006;2023-07-20T07:36:13;10.90;;;7.80;;
68126;SDS011;54931;52.098;21.006;2023-07-20T07:38:41;14.20;;;8.40;;
68126;SDS011;54931;52.098;21.006;2023-07-20T07:41:09;11.40;;;7.30;;
68126;SDS011;54931;52.098;21.006;2023-07-20T07:43:37;11.10;;;7.80;;
68126;SDS011;54931;52.098;21.006;2023-07-20T07:46:05;13.50;;;8.40;;
68126;SDS011;54931;52.098;21.006;2023-07-20T07:48:33;11.30;;;8.10;;
68126;SDS011;54931;52.098;21.006;2023-07-20T07:51:00;14.30;;;8.30;;
68126;SDS011;54931;52.098;21.006;2023-07-20T07:53:27;19.10;;;8.80;;
68126;SDS011;54931;52.098;21.006;2023-07-20T07:55:55;14.30;;;8.10;;
68126;SDS011;54931;52.098;21.006;2023-07-20T07:58:23;13.50;;;8.60;;
68126;SDS011;54931;52.098;21.006;2023-07-20T08:00:51;12.60;;;8.60;;
68126;SDS011;54931;52.098;21.006;2023-07-20T08:03:18;12.10;;;8.30;;
68126;SDS011;54931;52.098;21.006;2023-07-20T08:05:45;13.80;;;8.70;;
68126;SDS011;54931;52.098;21.006;2023-07-20T08:08:13;11.20;;;8.50;;
68126;SDS011;54931;52.098;21.006;2023-07-20T08:10:40;12.80;;;8.50;;
68126;SDS011;54931;52.098;21.006;2023-07-20T08:13:08;12.40;;;8.70;;
68126;SDS011;54931;52.098;21.006;2023-07-20T08:15:35;13.20;;;8.90;;
68126;SDS011;54931;52.098;21.006;2023-07-20T08:18:04;15.40;;;8.70;;
68126;SDS011;54931;52.098;21.006;2023-07-20T08:20:32;17.60;;;8.90;;
68126;SDS011;54931;52.098;21.006;2023-07-20T08:23:02;13.30;;;8.50;;
68126;SDS011;54931;52.098;21.006;2023-07-20T08:25:30;10.70;;;8.50;;
68126;SDS011;54931;52.098;21.006;2023-07-20T08:27:57;15.10;;;8.80;;
68126;SDS011;54931;52.098;21.006;2023-07-20T08:30:25;13.60;;;8.60;;
68126;SDS011;54931;52.098;21.006;2023-07-20T08:32:52;12.10;;;8.60;;
68126;SDS011;54931;52.098;21.006;2023-07-20T08:35:19;13.20;;;8.40;;
68126;SDS011;54931;52.098;21.006;2023-07-20T08:37:47;16.80;;;8.40;;
68126;SDS011;54931;52.098;21.006;2023-07-20T08:40:14;10.60;;;6.90;;
68126;SDS011;54931;52.098;21.006;2023-07-20T08:42:42;11.70;;;6.00;;
68126;SDS011;54931;52.098;21.006;2023-07-20T08:45:12;7.80;;;5.70;;
68126;SDS011;54931;52.098;21.006;2023-07-20T08:47:42;9.10;;;5.50;;
68126;SDS011;54931;52.098;21.006;2023-07-20T08:50:11;9.00;;;5.50;;
68126;SDS011;54931;52.098;21.006;2023-07-20T08:52:40;11.90;;;5.50;;
68126;SDS011;54931;52.098;21.006;2023-07-20T08:55:08;8.80;;;5.20;;
68126;SDS011;54931;52.098;21.006;2023-07-20T08:57:36;8.80;;;5.60;;
68126;SDS011;54931;52.098;21.006;2023-07-20T09:00:09;9.20;;;5.80;;
68126;SDS011;54931;52.098;21.006;2023-07-20T09:02:42;9.30;;;6.00;;
68126;SDS011;54931;52.098;21.006;2023-07-20T09:05:12;13.50;;;6.20;;
68126;SDS011;54931;52.098;21.006;2023-07-20T09:07:42;13.00;;;6.30;;
68126;SDS011;54931;52.098;21.006;2023-07-20T09:10:13;11.50;;;7.00;;
68126;SDS011;54931;52.098;21.006;2023-07-20T09:12:42;12.40;;;6.70;;
68126;SDS011;54931;52.098;21.006;2023-07-20T09:15:11;9.80;;;7.00;;
68126;SDS011;54931;52.098;21.006;2023-07-20T09:17:46;10.90;;;6.50;;
68126;SDS011;54931;52.098;21.006;2023-07-20T09:20:16;9.30;;;6.00;;
68126;SDS011;54931;52.098;21.006;2023-07-20T09:22:45;8.80;;;5.40;;
68126;SDS011;54931;52.098;21.006;2023-07-20T09:25:17;9.00;;;4.90;;
68126;SDS011;54931;52.098;21.006;2023-07-20T09:27:49;7.10;;;4.80;;
68126;SDS011;54931;52.098;21.006;2023-07-20T09:30:17;7.10;;;4.90;;
68126;SDS011;54931;52.098;21.006;2023-07-20T09:32:47;7.60;;;4.60;;
68126;SDS011;54931;52.098;21.006;2023-07-20T09:35:17;9.20;;;4.60;;
68126;SDS011;54931;52.098;21.006;2023-07-20T09:38:00;7.60;;;5.20;;
68126;SDS011;54931;52.098;21.006;2023-07-20T09:40:30;8.70;;;5.10;;
68126;SDS011;54931;52.098;21.006;2023-07-20T09:42:58;7.10;;;5.20;;
68126;SDS011;54931;52.098;21.006;2023-07-20T09:45:34;13.10;;;5.50;;
68126;SDS011;54931;52.098;21.006;2023-07-20T09:48:06;6.40;;;3.70;;
68126;SDS011;54931;52.098;21.006;2023-07-20T09:50:42;7.90;;;4.00;;
68126;SDS011;54931;52.098;21.006;2023-07-20T09:53:11;7.00;;;3.90;;
68126;SDS011;54931;52.098;21.006;2023-07-20T09:55:43;4.60;;;3.60;;
68126;SDS011;54931;52.098;21.006;2023-07-20T09:58:11;7.10;;;4.00;;
68126;SDS011;54931;52.098;21.006;2023-07-20T10:00:41;4.50;;;3.20;;
68126;SDS011;54931;52.098;21.006;2023-07-20T10:03:18;6.80;;;3.80;;
68126;SDS011;54931;52.098;21.006;2023-07-20T10:05:51;5.80;;;4.00;;
68126;SDS011;54931;52.098;21.006;2023-07-20T10:08:24;5.00;;;4.10;;
68126;SDS011;54931;52.098;21.006;2023-07-20T10:10:53;5.30;;;4.00;;
68126;SDS011;54931;52.098;21.006;2023-07-20T10:13:30;7.70;;;3.80;;
68126;SDS011;54931;52.098;21.006;2023-07-20T10:16:14;5.90;;;4.00;;
68126;SDS011;54931;52.098;21.006;2023-07-20T10:21:35;7.40;;;3.20;;
68126;SDS011;54931;52.098;21.006;2023-07-20T10:24:07;3.50;;;2.80;;
68126;SDS011;54931;52.098;21.006;2023-07-20T10:26:36;5.00;;;3.00;;
68126;SDS011;54931;52.098;21.006;2023-07-20T10:29:05;3.30;;;2.90;;
68126;SDS011;54931;52.098;21.006;2023-07-20T10:31:33;5.10;;;3.00;;
68126;SDS011;54931;52.098;21.006;2023-07-20T10:34:03;4.20;;;3.20;;
68126;SDS011;54931;52.098;21.006;2023-07-20T10:36:31;4.90;;;3.10;;
68126;SDS011;54931;52.098;21.006;2023-07-20T10:38:59;5.20;;;3.00;;
68126;SDS011;54931;52.098;21.006;2023-07-20T10:41:31;4.40;;;3.10;;
68126;SDS011;54931;52.098;21.006;2023-07-20T10:44:03;5.10;;;2.80;;
68126;SDS011;54931;52.098;21.006;2023-07-20T10:46:45;4.00;;;3.10;;
68126;SDS011;54931;52.098;21.006;2023-07-20T10:49:14;4.80;;;3.30;;
68126;SDS011;54931;52.098;21.006;2023-07-20T10:51:46;3.90;;;3.20;;
68126;SDS011;54931;52.098;21.006;2023-07-20T10:56:48;5.30;;;2.80;;
68126;SDS011;54931;52.098;21.006;2023-07-20T10:59:41;5.60;;;3.20;;
68126;SDS011;54931;52.098;21.006;2023-07-20T11:02:10;3.70;;;2.80;;
68126;SDS011;54931;52.098;21.006;2023-07-20T11:04:38;4.70;;;2.90;;
68126;SDS011;54931;52.098;21.006;2023-07-20T11:07:08;5.00;;;3.00;;
68126;SDS011;54931;52.098;21.006;2023-07-20T11:09:37;3.30;;;2.50;;
68126;SDS011;54931;52.098;21.006;2023-07-20T11:12:13;5.10;;;2.30;;
68126;SDS011;54931;52.098;21.006;2023-07-20T11:14:42;3.80;;;2.60;;
68126;SDS011;54931;52.098;21.006;2023-07-20T11:17:31;4.80;;;2.60;;
68126;SDS011;54931;52.098;21.006;2023-07-20T11:20:00;3.00;;;2.20;;
68126;SDS011;54931;52.098;21.006;2023-07-20T11:22:33;3.70;;;2.50;;
68126;SDS011;54931;52.098;21.006;2023-07-20T11:25:01;3.20;;;2.30;;
68126;SDS011;54931;52.098;21.006;2023-07-20T11:27:28;3.20;;;2.50;;
68126;SDS011;54931;52.098;21.006;2023-07-20T11:29:56;3.50;;;2.50;;
68126;SDS011;54931;52.098;21.006;2023-07-20T11:32:24;3.60;;;2.60;;
68126;SDS011;54931;52.098;21.006;2023-07-20T11:34:51;3.50;;;2.70;;
68126;SDS011;54931;52.098;21.006;2023-07-20T11:37:18;5.80;;;2.80;;
68126;SDS011;54931;52.098;21.006;2023-07-20T11:39:46;4.60;;;2.90;;
68126;SDS011;54931;52.098;21.006;2023-07-20T11:42:13;5.10;;;2.70;;
68126;SDS011;54931;52.098;21.006;2023-07-20T11:44:42;4.90;;;2.60;;
68126;SDS011;54931;52.098;21.006;2023-07-20T11:47:11;4.30;;;2.70;;
68126;SDS011;54931;52.098;21.006;2023-07-20T11:49:44;4.30;;;2.40;;
68126;SDS011;54931;52.098;21.006;2023-07-20T11:52:16;4.60;;;2.70;;
68126;SDS011;54931;52.098;21.006;2023-07-20T11:54:44;3.90;;;2.80;;
68126;SDS011;54931;52.098;21.006;2023-07-20T11:57:16;4.90;;;2.80;;
68126;SDS011;54931;52.098;21.006;2023-07-20T11:59:54;4.60;;;2.80;;
68126;SDS011;54931;52.098;21.006;2023-07-20T12:02:29;3.20;;;2.50;;
68126;SDS011;54931;52.098;21.006;2023-07-20T12:04:57;3.50;;;2.50;;
68126;SDS011;54931;52.098;21.006;2023-07-20T12:07:27;3.70;;;2.20;;
68126;SDS011;54931;52.098;21.006;2023-07-20T12:10:11;3.60;;;2.60;;
68126;SDS011;54931;52.098;21.006;2023-07-20T12:12:41;4.40;;;3.00;;
68126;SDS011;54931;52.098;21.006;2023-07-20T12:15:14;4.00;;;2.60;;
68126;SDS011;54931;52.098;21.006;2023-07-20T12:17:46;3.70;;;2.70;;
68126;SDS011;54931;52.098;21.006;2023-07-20T12:20:30;4.30;;;2.90;;
68126;SDS011;54931;52.098;21.006;2023-07-20T12:28:19;3.50;;;2.70;;
68126;SDS011;54931;52.098;21.006;2023-07-20T12:30:47;4.40;;;2.90;;
68126;SDS011;54931;52.098;21.006;2023-07-20T12:33:24;5.50;;;2.80;;
68126;SDS011;54931;52.098;21.006;2023-07-20T12:35:51;4.90;;;2.90;;
68126;SDS011;54931;52.098;21.006;2023-07-20T12:38:25;3.10;;;2.80;;
68126;SDS011;54931;52.098;21.006;2023-07-20T12:40:54;3.00;;;2.70;;
68126;SDS011;54931;52.098;21.006;2023-07-20T12:43:22;3.90;;;2.80;;
68126;SDS011;54931;52.098;21.006;2023-07-20T12:45:50;3.30;;;2.70;;
68126;SDS011;54931;52.098;21.006;2023-07-20T12:48:18;3.80;;;2.70;;
68126;SDS011;54931;52.098;21.006;2023-07-20T12:50:46;3.90;;;2.60;;
68126;SDS011;54931;52.098;21.006;2023-07-20T12:53:14;4.10;;;2.60;;
68126;SDS011;54931;52.098;21.006;2023-07-20T12:55:42;3.90;;;2.70;;
68126;SDS011;54931;52.098;21.006;2023-07-20T12:58:11;4.30;;;3.00;;
68126;SDS011;54931;52.098;21.006;2023-07-20T13:00:39;4.70;;;2.70;;
68126;SDS011;54931;52.098;21.006;2023-07-20T13:03:07;5.10;;;3.10;;
68126;SDS011;54931;52.098;21.006;2023-07-20T13:05:35;3.60;;;3.10;;
68126;SDS011;54931;52.098;21.006;2023-07-20T13:08:03;5.70;;;2.70;;
68126;SDS011;54931;52.098;21.006;2023-07-20T13:10:32;4.70;;;2.70;;
68126;SDS011;54931;52.098;21.006;2023-07-20T13:12:59;4.40;;;2.90;;
68126;SDS011;54931;52.098;21.006;2023-07-20T13:15:31;3.80;;;2.80;;
68126;SDS011;54931;52.098;21.006;2023-07-20T13:17:59;4.80;;;2.70;;
68126;SDS011;54931;52.098;21.006;2023-07-20T13:20:28;3.30;;;2.60;;
68126;SDS011;54931;52.098;21.006;2023-07-20T13:22:57;4.20;;;2.60;;
68126;SDS011;54931;52.098;21.006;2023-07-20T13:25:25;3.00;;;2.40;;
68126;SDS011;54931;52.098;21.006;2023-07-20T13:27:52;4.20;;;2.30;;
68126;SDS011;54931;52.098;21.006;2023-07-20T13:30:20;4.60;;;2.50;;
68126;SDS011;54931;52.098;21.006;2023-07-20T13:32:48;3.90;;;2.60;;
68126;SDS011;54931;52.098;21.006;2023-07-20T13:35:16;3.10;;;2.30;;
68126;SDS011;54931;52.098;21.006;2023-07-20T13:37:43;5.00;;;2.30;;
68126;SDS011;54931;52.098;21.006;2023-07-20T13:40:10;3.50;;;2.40;;
68126;SDS011;54931;52.098;21.006;2023-07-20T13:42:40;5.20;;;2.40;;
68126;SDS011;54931;52.098;21.006;2023-07-20T13:45:08;3.30;;;2.30;;
68126;SDS011;54931;52.098;21.006;2023-07-20T13:47:36;3.70;;;2.50;;
68126;SDS011;54931;52.098;21.006;2023-07-20T13:50:04;3.30;;;2.50;;
68126;SDS011;54931;52.098;21.006;2023-07-20T13:52:32;3.70;;;2.50;;
68126;SDS011;54931;52.098;21.006;2023-07-20T13:54:59;3.20;;;2.50;;
68126;SDS011;54931;52.098;21.006;2023-07-20T13:57:27;3.60;;;2.60;;
68126;SDS011;54931;52.098;21.006;2023-07-20T13:59:54;3.80;;;2.10;;
68126;SDS011;54931;52.098;21.006;2023-07-20T14:02:22;7.30;;;2.70;;
68126;SDS011;54931;52.098;21.006;2023-07-20T14:04:49;5.10;;;2.20;;
68126;SDS011;54931;52.098;21.006;2023-07-20T14:07:17;3.30;;;2.20;;
68126;SDS011;54931;52.098;21.006;2023-07-20T14:09:44;2.50;;;2.00;;
68126;SDS011;54931;52.098;21.006;2023-07-20T14:12:11;2.80;;;1.90;;
68126;SDS011;54931;52.098;21.006;2023-07-20T14:14:41;3.50;;;2.10;;
68126;SDS011;54931;52.098;21.006;2023-07-20T14:17:08;2.70;;;2.00;;
68126;SDS011;54931;52.098;21.006;2023-07-20T14:19:37;3.50;;;2.20;;
68126;SDS011;54931;52.098;21.006;2023-07-20T14:22:05;3.30;;;2.20;;
68126;SDS011;54931;52.098;21.006;2023-07-20T14:24:32;4.20;;;2.20;;
68126;SDS011;54931;52.098;21.006;2023-07-20T14:27:00;3.50;;;2.20;;
68126;SDS011;54931;52.098;21.006;2023-07-20T14:29:28;3.40;;;2.10;;
68126;SDS011;54931;52.098;21.006;2023-07-20T14:31:58;3.70;;;2.00;;
68126;SDS011;54931;52.098;21.006;2023-07-20T14:34:26;4.90;;;2.30;;
68126;SDS011;54931;52.098;21.006;2023-07-20T14:36:53;3.00;;;2.20;;
68126;SDS011;54931;52.098;21.006;2023-07-20T14:39:20;6.20;;;1.90;;
68126;SDS011;54931;52.098;21.006;2023-07-20T14:41:49;4.40;;;2.20;;
68126;SDS011;54931;52.098;21.006;2023-07-20T14:44:18;2.20;;;2.00;;
68126;SDS011;54931;52.098;21.006;2023-07-20T14:46:48;3.20;;;1.90;;
68126;SDS011;54931;52.098;21.006;2023-07-20T14:49:16;4.20;;;2.60;;
68126;SDS011;54931;52.098;21.006;2023-07-20T14:51:45;6.00;;;2.50;;
68126;SDS011;54931;52.098;21.006;2023-07-20T14:54:14;2.80;;;2.40;;
68126;SDS011;54931;52.098;21.006;2023-07-20T14:56:49;2.90;;;2.20;;
68126;SDS011;54931;52.098;21.006;2023-07-20T14:59:19;6.40;;;2.40;;
68126;SDS011;54931;52.098;21.006;2023-07-20T15:01:47;3.50;;;2.20;;
68126;SDS011;54931;52.098;21.006;2023-07-20T15:04:15;2.70;;;1.90;;